Time;durP1;ratioP1;P1;durP2;ratioP2;P2;SDS_P1;SDS_P2;PMS_P1;PMS_P2;Temp;Humidity;BMP_temperature;BMP_pressure;BME280_temperature;BME280_humidity;BME280_pressure;Samples;Min_cycle;Max_cycle;Signal;HPM_P1;HPM_P2
2022/10/21 00:01:49;;;;;;;;;5.00;2.00;;;;;;;;5095556;27;45579;-73
2022/10/21 00:04:15;;;;;;;;;1.00;1.00;;;;;;;;5071868;27;47987;-72
2022/10/21 00:06:40;;;;;;;;;5.00;2.67;;;;;;;;5099810;27;45439;-75
2022/10/21 00:09:05;;;;;;;;;2.33;2.33;;;;;;;;5101246;27;45285;-72
2022/10/21 00:11:30;;;;;;;;;2.75;1.00;;;;;;;;5106622;27;45376;-73
2022/10/21 00:13:56;;;;;;;;;3.00;2.00;;;;;;;;5102495;27;45538;-72
2022/10/21 00:16:21;;;;;;;;;2.33;2.00;;;;;;;;5102559;27;44735;-74
2022/10/21 00:18:47;;;;;;;;;0.33;0.33;;;;;;;;5115325;27;45294;-72
2022/10/21 00:21:13;;;;;;;;;1.33;1.33;;;;;;;;5099461;27;45798;-71
2022/10/21 00:23:39;;;;;;;;;1.33;1.33;;;;;;;;5099036;27;47197;-72
2022/10/21 00:26:06;;;;;;;;;3.00;3.00;;;;;;;;5075934;27;45865;-72
2022/10/21 00:28:32;;;;;;;;;2.50;2.00;;;;;;;;5100003;27;45445;-72
2022/10/21 00:30:57;;;;;;;;;0.67;0.67;;;;;;;;5105065;27;45675;-72
2022/10/21 00:33:22;;;;;;;;;2.00;2.00;;;;;;;;5108325;27;46686;-72
2022/10/21 00:35:51;;;;;;;;;2.00;2.00;;;;;;;;5095067;27;45643;-72
2022/10/21 00:38:16;;;;;;;;;2.00;2.00;;;;;;;;5078022;27;45275;-71
2022/10/21 00:40:41;;;;;;;;;1.33;1.33;;;;;;;;5087830;27;45672;-71
2022/10/21 00:43:08;;;;;;;;;2.67;2.00;;;;;;;;5087646;27;45360;-71
2022/10/21 00:45:33;;;;;;;;;2.00;2.00;;;;;;;;5076617;27;45412;-71
2022/10/21 00:48:01;;;;;;;;;2.00;2.00;;;;;;;;5082448;27;45690;-70
2022/10/21 00:50:26;;;;;;;;;4.33;2.67;;;;;;;;5083340;27;45704;-71
2022/10/21 00:52:53;;;;;;;;;2.00;2.00;;;;;;;;5097299;27;45685;-72
2022/10/21 00:55:19;;;;;;;;;2.00;2.00;;;;;;;;5074583;27;45269;-71
2022/10/21 00:57:45;;;;;;;;;2.67;2.67;;;;;;;;5101910;27;45914;-71
2022/10/21 01:00:10;;;;;;;;;2.00;2.00;;;;;;;;5098959;27;45840;-71
2022/10/21 01:02:35;;;;;;;;;2.67;2.33;;;;;;;;5093355;27;45771;-70
2022/10/21 01:05:01;;;;;;;;;3.67;3.67;;;;;;;;5082255;27;45798;-70
2022/10/21 01:07:26;;;;;;;;;2.00;2.00;;;;;;;;5093708;27;45355;-70
2022/10/21 01:09:52;;;;;;;;;2.33;2.33;;;;;;;;5088818;27;45833;-71
2022/10/21 01:12:37;;;;;;;;;2.00;2.00;;;;;;;;5094505;27;46300;-72
2022/10/21 01:15:02;;;;;;;;;2.75;2.75;;;;;;;;5077877;27;45393;-70
2022/10/21 01:17:28;;;;;;;;;3.00;3.00;;;;;;;;5093388;27;45879;-72
2022/10/21 01:20:05;;;;;;;;;4.25;2.00;;;;;;;;5089781;27;45780;-72
2022/10/21 01:22:39;;;;;;;;;4.00;2.00;;;;;;;;5104727;27;45733;-70
2022/10/21 01:25:08;;;;;;;;;4.25;2.75;;;;;;;;5097055;27;45771;-72
2022/10/21 01:27:59;;;;;;;;;2.00;2.00;;;;;;;;5092881;27;45810;-73
2022/10/21 01:30:43;;;;;;;;;5.00;3.00;;;;;;;;5041447;27;46858;-72
2022/10/21 01:33:27;;;;;;;;;5.00;4.00;;;;;;;;5104712;27;45695;-71
2022/10/21 01:36:10;;;;;;;;;1.75;1.75;;;;;;;;5109644;27;45782;-70
2022/10/21 01:38:54;;;;;;;;;3.00;3.00;;;;;;;;5076818;27;45690;-71
2022/10/21 01:41:45;;;;;;;;;3.25;0.75;;;;;;;;5075362;27;45943;-71
2022/10/21 01:44:13;;;;;;;;;1.00;1.00;;;;;;;;5072078;27;45301;-72
2022/10/21 01:46:47;;;;;;;;;2.50;2.00;;;;;;;;5103010;27;45749;-72
2022/10/21 01:49:19;;;;;;;;;2.50;2.00;;;;;;;;5098062;27;45427;-70
2022/10/21 01:51:45;;;;;;;;;4.50;2.50;;;;;;;;5084728;27;45714;-71
2022/10/21 01:54:18;;;;;;;;;1.25;1.00;;;;;;;;5082813;27;46423;-72
2022/10/21 01:56:45;;;;;;;;;5.00;1.67;;;;;;;;5055161;28;45460;-72
2022/10/21 01:59:12;;;;;;;;;2.33;2.00;;;;;;;;5080034;27;45683;-72
2022/10/21 02:01:38;;;;;;;;;2.67;2.67;;;;;;;;5076230;27;45373;-71
2022/10/21 02:04:04;;;;;;;;;2.00;2.00;;;;;;;;5084757;27;46365;-71
2022/10/21 02:06:29;;;;;;;;;5.33;3.00;;;;;;;;5079367;27;45770;-72
2022/10/21 02:08:55;;;;;;;;;2.67;2.67;;;;;;;;5093648;27;45897;-71
2022/10/21 02:11:20;;;;;;;;;3.67;2.33;;;;;;;;5071877;27;45830;-71
2022/10/21 02:13:58;;;;;;;;;5.67;3.00;;;;;;;;5075260;27;46279;-70
2022/10/21 02:16:28;;;;;;;;;2.00;2.00;;;;;;;;5074158;27;45353;-72
2022/10/21 02:18:54;;;;;;;;;4.33;3.33;;;;;;;;5073449;27;45524;-72
2022/10/21 02:21:22;;;;;;;;;5.00;3.00;;;;;;;;5086169;27;45362;-70
2022/10/21 02:23:52;;;;;;;;;5.67;4.00;;;;;;;;5084345;27;45553;-73
2022/10/21 02:26:17;;;;;;;;;2.00;2.00;;;;;;;;5081209;27;45618;-75
2022/10/21 02:28:43;;;;;;;;;4.00;4.00;;;;;;;;5083303;27;45526;-71
2022/10/21 02:31:08;;;;;;;;;3.67;2.67;;;;;;;;5073063;27;45480;-76
2022/10/21 02:33:49;;;;;;;;;3.00;3.00;;;;;;;;5073378;27;46407;-71
2022/10/21 02:36:36;;;;;;;;;2.00;2.00;;;;;;;;5073229;27;45596;-71
2022/10/21 02:39:05;;;;;;;;;5.67;3.00;;;;;;;;5093598;27;45709;-71
2022/10/21 02:41:32;;;;;;;;;3.00;3.00;;;;;;;;5069442;27;46049;-73
2022/10/21 02:44:01;;;;;;;;;3.00;3.00;;;;;;;;5083856;27;46311;-72
2022/10/21 02:46:34;;;;;;;;;1.67;1.67;;;;;;;;5071895;27;45888;-72
2022/10/21 02:48:59;;;;;;;;;2.00;2.00;;;;;;;;5085500;27;45842;-71
2022/10/21 02:51:24;;;;;;;;;5.00;4.67;;;;;;;;5092248;27;45474;-71
2022/10/21 02:53:50;;;;;;;;;3.33;3.00;;;;;;;;5086933;27;46327;-72
2022/10/21 02:56:15;;;;;;;;;2.00;2.00;;;;;;;;5099165;27;45388;-72
2022/10/21 02:58:40;;;;;;;;;5.00;2.33;;;;;;;;5093240;27;45278;-73
2022/10/21 03:01:06;;;;;;;;;5.67;3.00;;;;;;;;5101640;27;45478;-74
2022/10/21 03:03:31;;;;;;;;;4.00;3.00;;;;;;;;5080416;27;46207;-74
2022/10/21 03:05:56;;;;;;;;;4.33;3.00;;;;;;;;5107900;27;45710;-74
2022/10/21 03:08:21;;;;;;;;;3.67;2.33;;;;;;;;5097406;27;45251;-73
2022/10/21 03:10:48;;;;;;;;;2.00;2.00;;;;;;;;5084924;27;45558;-72
2022/10/21 03:13:13;;;;;;;;;4.00;3.00;;;;;;;;5096151;27;46031;-73
2022/10/21 03:15:38;;;;;;;;;4.33;2.33;;;;;;;;5099904;27;45550;-74
2022/10/21 03:18:03;;;;;;;;;3.67;3.33;;;;;;;;5100087;27;45643;-71
2022/10/21 03:20:29;;;;;;;;;3.00;3.00;;;;;;;;5083704;27;45692;-73
2022/10/21 03:22:54;;;;;;;;;6.00;5.00;;;;;;;;5094048;27;46342;-72
2022/10/21 03:25:19;;;;;;;;;8.33;4.67;;;;;;;;5103498;27;45630;-73
2022/10/21 03:27:44;;;;;;;;;4.00;4.00;;;;;;;;5078551;27;45380;-74
2022/10/21 03:30:10;;;;;;;;;3.00;3.00;;;;;;;;5094254;27;45340;-72
2022/10/21 03:32:35;;;;;;;;;3.67;2.33;;;;;;;;5099314;27;45435;-72
2022/10/21 03:35:01;;;;;;;;;4.00;3.00;;;;;;;;5094028;27;45362;-71
2022/10/21 03:37:26;;;;;;;;;5.00;4.67;;;;;;;;5109292;27;45329;-72
2022/10/21 03:39:51;;;;;;;;;2.33;2.33;;;;;;;;5088782;27;45808;-73
2022/10/21 03:42:16;;;;;;;;;4.33;3.33;;;;;;;;5102858;27;45935;-73
2022/10/21 03:44:42;;;;;;;;;4.00;3.67;;;;;;;;5104930;27;45928;-73
2022/10/21 03:47:07;;;;;;;;;5.00;4.00;;;;;;;;5087564;27;45433;-72
2022/10/21 03:49:32;;;;;;;;;5.00;4.00;;;;;;;;5076927;27;45433;-72
2022/10/21 03:51:58;;;;;;;;;3.33;3.00;;;;;;;;5089528;27;45496;-72
2022/10/21 03:54:23;;;;;;;;;3.00;3.00;;;;;;;;5092613;27;45618;-74
2022/10/21 03:56:48;;;;;;;;;3.00;3.00;;;;;;;;5091366;27;45500;-71
2022/10/21 03:59:14;;;;;;;;;4.33;3.00;;;;;;;;5077710;27;45412;-72
2022/10/21 04:01:39;;;;;;;;;3.67;3.00;;;;;;;;5094431;27;45394;-72
2022/10/21 04:04:04;;;;;;;;;4.75;3.25;;;;;;;;5085739;27;45480;-73
2022/10/21 04:06:29;;;;;;;;;6.00;3.00;;;;;;;;5098675;27;45429;-72
2022/10/21 04:08:54;;;;;;;;;2.67;1.67;;;;;;;;5090295;27;45530;-73
2022/10/21 04:11:20;;;;;;;;;5.00;2.00;;;;;;;;5076718;27;45385;-73
2022/10/21 04:13:45;;;;;;;;;5.50;3.00;;;;;;;;5089482;27;45331;-74
2022/10/21 04:16:14;;;;;;;;;3.25;3.25;;;;;;;;5085152;27;45486;-74
2022/10/21 04:18:39;;;;;;;;;2.00;2.00;;;;;;;;5096937;27;45562;-74
2022/10/21 04:21:05;;;;;;;;;3.33;2.33;;;;;;;;5080117;27;45355;-73
2022/10/21 04:23:30;;;;;;;;;6.25;2.75;;;;;;;;5066268;27;45441;-72
2022/10/21 04:25:55;;;;;;;;;4.00;4.00;;;;;;;;5079144;27;45902;-72
2022/10/21 04:28:21;;;;;;;;;3.25;3.25;;;;;;;;5080361;27;45629;-73
2022/10/21 04:30:47;;;;;;;;;2.00;2.00;;;;;;;;5103044;27;45620;-72
2022/10/21 04:33:13;;;;;;;;;4.00;3.50;;;;;;;;5091491;27;45848;-74
2022/10/21 04:35:38;;;;;;;;;2.67;1.67;;;;;;;;5101750;27;45425;-73
2022/10/21 04:38:04;;;;;;;;;5.50;4.50;;;;;;;;5108989;27;45760;-72
2022/10/21 04:40:29;;;;;;;;;4.00;2.67;;;;;;;;5097061;27;45618;-73
2022/10/21 04:42:54;;;;;;;;;5.75;4.00;;;;;;;;5109065;27;45314;-74
2022/10/21 04:45:19;;;;;;;;;2.75;2.50;;;;;;;;5108165;27;45433;-75
2022/10/21 04:47:45;;;;;;;;;4.33;2.33;;;;;;;;5094777;27;45515;-72
2022/10/21 04:50:10;;;;;;;;;4.00;4.00;;;;;;;;5086803;27;47071;-75
2022/10/21 04:52:35;;;;;;;;;3.00;3.00;;;;;;;;5081569;27;45358;-72
2022/10/21 04:55:01;;;;;;;;;3.33;3.33;;;;;;;;5076098;27;45433;-75
2022/10/21 04:57:26;;;;;;;;;4.33;4.33;;;;;;;;5076406;27;45633;-73
2022/10/21 04:59:51;;;;;;;;;6.00;3.67;;;;;;;;5082297;27;46217;-72
2022/10/21 05:02:17;;;;;;;;;4.50;3.75;;;;;;;;5081798;27;45698;-71
2022/10/21 05:04:42;;;;;;;;;1.00;1.00;;;;;;;;5080660;27;45320;-73
2022/10/21 05:07:07;;;;;;;;;4.67;3.67;;;;;;;;5083224;27;45358;-74
2022/10/21 05:09:33;;;;;;;;;4.67;4.67;;;;;;;;5083739;27;46190;-66
2022/10/21 05:11:58;;;;;;;;;4.33;3.00;;;;;;;;5084697;27;45271;-75
2022/10/21 05:14:23;;;;;;;;;4.75;3.50;;;;;;;;5073371;27;45551;-74
2022/10/21 05:16:49;;;;;;;;;4.00;4.00;;;;;;;;5082812;27;45636;-77
2022/10/21 05:19:14;;;;;;;;;9.00;5.33;;;;;;;;5082301;27;45842;-72
2022/10/21 05:21:39;;;;;;;;;5.00;4.00;;;;;;;;5088567;27;45345;-75
2022/10/21 05:24:05;;;;;;;;;4.00;3.33;;;;;;;;5098440;27;45346;-75
2022/10/21 05:26:30;;;;;;;;;4.67;4.67;;;;;;;;5085483;27;45404;-75
2022/10/21 05:28:58;;;;;;;;;5.00;5.00;;;;;;;;5088498;27;45601;-74
2022/10/21 05:31:24;;;;;;;;;7.00;5.00;;;;;;;;5093679;27;45423;-74
2022/10/21 05:33:49;;;;;;;;;6.00;5.00;;;;;;;;5101914;27;45452;-72
2022/10/21 05:36:14;;;;;;;;;4.75;2.25;;;;;;;;5099336;27;45395;-73
2022/10/21 05:38:39;;;;;;;;;7.00;4.00;;;;;;;;5094824;27;45869;-74
2022/10/21 05:41:05;;;;;;;;;5.33;5.00;;;;;;;;5100038;27;45758;-74
2022/10/21 05:43:30;;;;;;;;;4.25;3.00;;;;;;;;5072367;27;46557;-71
2022/10/21 05:45:55;;;;;;;;;3.00;3.00;;;;;;;;5090681;27;45366;-73
2022/10/21 05:48:21;;;;;;;;;4.25;3.25;;;;;;;;5111156;27;45689;-69
2022/10/21 05:50:47;;;;;;;;;3.00;3.00;;;;;;;;5095246;27;45363;-69
2022/10/21 05:53:12;;;;;;;;;4.00;4.00;;;;;;;;5099210;27;45410;-67
2022/10/21 05:55:37;;;;;;;;;5.00;4.00;;;;;;;;5113095;27;45719;-68
2022/10/21 05:58:03;;;;;;;;;4.67;4.67;;;;;;;;5092139;27;45460;-70
2022/10/21 06:00:28;;;;;;;;;6.00;4.00;;;;;;;;5083903;27;45370;-68
2022/10/21 06:02:53;;;;;;;;;6.00;4.00;;;;;;;;5076384;27;45810;-69
2022/10/21 06:05:20;;;;;;;;;5.50;5.00;;;;;;;;5090430;27;46144;-71
2022/10/21 06:07:45;;;;;;;;;5.00;5.00;;;;;;;;5097605;27;46879;-70
2022/10/21 06:10:11;;;;;;;;;3.75;3.75;;;;;;;;5083177;27;45640;-69
2022/10/21 06:12:37;;;;;;;;;3.75;2.50;;;;;;;;5068212;27;45880;-71
2022/10/21 06:15:02;;;;;;;;;4.25;4.25;;;;;;;;5088412;27;46514;-69
2022/10/21 06:17:28;;;;;;;;;5.00;3.67;;;;;;;;5081061;27;45472;-72
2022/10/21 06:19:53;;;;;;;;;2.75;2.50;;;;;;;;5087132;27;45804;-68
2022/10/21 06:22:18;;;;;;;;;5.50;3.00;;;;;;;;5072442;27;45490;-69
2022/10/21 06:24:44;;;;;;;;;2.50;2.50;;;;;;;;5089190;27;45764;-70
2022/10/21 06:27:09;;;;;;;;;6.25;3.00;;;;;;;;5090076;27;45819;-68
2022/10/21 06:29:35;;;;;;;;;4.75;3.00;;;;;;;;5084525;27;45840;-70
2022/10/21 06:32:00;;;;;;;;;3.00;2.25;;;;;;;;5088017;27;45815;-70
2022/10/21 06:34:26;;;;;;;;;5.75;3.25;;;;;;;;5096222;27;47179;-69
2022/10/21 06:36:51;;;;;;;;;1.75;0.50;;;;;;;;5092308;27;45432;-69
2022/10/21 06:39:16;;;;;;;;;2.00;2.00;;;;;;;;5091428;27;45211;-69
2022/10/21 06:41:41;;;;;;;;;3.00;3.00;;;;;;;;5079554;27;45692;-69
2022/10/21 06:44:07;;;;;;;;;2.50;2.25;;;;;;;;5095049;27;45404;-74
2022/10/21 06:46:32;;;;;;;;;1.50;1.00;;;;;;;;5099949;27;46084;-71
2022/10/21 06:48:57;;;;;;;;;3.33;2.00;;;;;;;;5097150;27;45439;-73
2022/10/21 06:51:23;;;;;;;;;3.50;3.50;;;;;;;;5078534;27;45715;-72
2022/10/21 06:53:52;;;;;;;;;3.00;3.00;;;;;;;;5077753;27;45402;-74
2022/10/21 06:56:18;;;;;;;;;2.25;1.50;;;;;;;;5085597;27;46225;-73
2022/10/21 06:58:47;;;;;;;;;3.25;2.75;;;;;;;;5077952;27;45802;-72
2022/10/21 07:01:16;;;;;;;;;2.00;2.00;;;;;;;;5086845;27;45400;-72
2022/10/21 07:03:41;;;;;;;;;3.75;2.00;;;;;;;;5085124;27;45563;-72
2022/10/21 07:06:07;;;;;;;;;1.00;1.00;;;;;;;;5087657;27;46594;-73
2022/10/21 07:08:32;;;;;;;;;2.00;2.00;;;;;;;;5095726;27;45859;-73
2022/10/21 07:10:58;;;;;;;;;4.50;3.25;;;;;;;;5100241;27;45606;-74
2022/10/21 07:13:23;;;;;;;;;2.00;2.00;;;;;;;;5085878;27;45851;-74
2022/10/21 07:16:02;;;;;;;;;3.67;2.67;;;;;;;;5076709;27;47272;-72
2022/10/21 07:18:27;;;;;;;;;4.00;2.00;;;;;;;;5064656;27;45746;-70
2022/10/21 07:20:53;;;;;;;;;4.33;4.00;;;;;;;;5090690;27;45797;-66
2022/10/21 07:23:18;;;;;;;;;6.00;3.00;;;;;;;;5080431;27;45847;-65
2022/10/21 07:25:43;;;;;;;;;8.33;5.00;;;;;;;;5089461;27;46596;-64
2022/10/21 07:28:09;;;;;;;;;2.67;2.67;;;;;;;;5077978;27;45464;-64
2022/10/21 07:30:41;;;;;;;;;2.00;2.00;;;;;;;;5092274;27;45302;-67
2022/10/21 07:33:06;;;;;;;;;6.67;3.67;;;;;;;;5086281;27;45945;-64
2022/10/21 07:35:31;;;;;;;;;7.67;5.67;;;;;;;;5088847;27;46606;-66
2022/10/21 07:37:57;;;;;;;;;3.00;2.00;;;;;;;;5081548;27;45682;-64
2022/10/21 07:40:22;;;;;;;;;5.67;3.00;;;;;;;;5086897;27;45758;-65
2022/10/21 07:42:47;;;;;;;;;3.00;1.50;;;;;;;;5105311;27;45968;-65
2022/10/21 07:45:13;;;;;;;;;2.00;2.00;;;;;;;;5105256;27;46399;-66
2022/10/21 07:47:38;;;;;;;;;4.67;2.67;;;;;;;;5091401;27;45719;-66
2022/10/21 07:50:03;;;;;;;;;2.00;2.00;;;;;;;;5078010;27;45628;-64
2022/10/21 07:52:28;;;;;;;;;3.25;3.00;;;;;;;;5086157;27;45840;-65
2022/10/21 07:54:54;;;;;;;;;4.00;3.00;;;;;;;;5094533;27;45947;-66
2022/10/21 07:57:19;;;;;;;;;7.00;5.00;;;;;;;;5101964;27;45746;-64
2022/10/21 07:59:44;;;;;;;;;7.00;5.67;;;;;;;;5074399;27;45891;-64
2022/10/21 08:02:12;;;;;;;;;3.50;3.50;;;;;;;;5092869;27;45733;-64
2022/10/21 08:04:38;;;;;;;;;4.00;4.00;;;;;;;;5086195;27;46317;-65
2022/10/21 08:07:03;;;;;;;;;5.00;4.00;;;;;;;;5085162;27;45930;-67
2022/10/21 08:09:28;;;;;;;;;5.00;3.00;;;;;;;;5083016;27;45476;-66
2022/10/21 08:11:54;;;;;;;;;5.00;4.33;;;;;;;;5089026;27;45654;-66
2022/10/21 08:14:19;;;;;;;;;5.00;3.67;;;;;;;;5098401;27;47074;-64
2022/10/21 08:16:44;;;;;;;;;5.25;4.00;;;;;;;;5097363;27;45863;-64
2022/10/21 08:19:16;;;;;;;;;4.00;3.00;;;;;;;;5083745;27;45735;-67
2022/10/21 08:21:41;;;;;;;;;3.25;3.00;;;;;;;;5084737;27;45775;-66
2022/10/21 08:24:06;;;;;;;;;6.33;4.33;;;;;;;;5089996;27;46425;-67
2022/10/21 08:26:31;;;;;;;;;4.50;4.00;;;;;;;;5086132;27;45860;-67
2022/10/21 08:28:57;;;;;;;;;4.25;3.00;;;;;;;;5090853;27;45733;-65
2022/10/21 08:31:22;;;;;;;;;2.50;2.50;;;;;;;;5089747;27;45723;-64
2022/10/21 08:33:48;;;;;;;;;4.50;3.00;;;;;;;;5082203;27;45756;-65
2022/10/21 08:36:14;;;;;;;;;5.75;4.75;;;;;;;;5077082;27;45528;-65
2022/10/21 08:38:40;;;;;;;;;3.25;2.00;;;;;;;;5081439;27;45669;-64
2022/10/21 08:41:28;;;;;;;;;3.50;3.50;;;;;;;;5080356;27;45392;-63
2022/10/21 08:44:14;;;;;;;;;3.50;3.00;;;;;;;;5077390;27;46454;-63
2022/10/21 08:46:46;;;;;;;;;4.75;3.75;;;;;;;;5079465;27;45386;-63
2022/10/21 08:49:34;;;;;;;;;2.00;2.00;;;;;;;;5079674;27;45567;-63
2022/10/21 08:52:04;;;;;;;;;2.50;2.00;;;;;;;;5091128;27;45615;-64
2022/10/21 08:54:48;;;;;;;;;5.75;2.00;;;;;;;;5096655;27;45846;-64
2022/10/21 08:57:14;;;;;;;;;3.25;2.75;;;;;;;;5079302;27;45886;-64
2022/10/21 08:59:42;;;;;;;;;6.25;4.00;;;;;;;;5081050;27;45561;-66
2022/10/21 09:02:10;;;;;;;;;5.25;4.00;;;;;;;;5076978;27;45724;-64
2022/10/21 09:04:39;;;;;;;;;5.25;4.25;;;;;;;;5071561;27;45922;-65
2022/10/21 09:07:36;;;;;;;;;5.75;3.50;;;;;;;;5083967;27;45439;-65
2022/10/21 09:10:08;;;;;;;;;1.75;1.25;;;;;;;;5044723;27;45439;-65
2022/10/21 09:12:37;;;;;;;;;2.25;2.25;;;;;;;;5082557;27;46020;-64
2022/10/21 09:15:10;;;;;;;;;3.75;3.75;;;;;;;;5090327;27;45903;-66
2022/10/21 09:17:47;;;;;;;;;3.20;2.40;;;;;;;;5082555;27;45772;-65
2022/10/21 09:20:28;;;;;;;;;3.00;3.00;;;;;;;;5072231;27;45355;-65
2022/10/21 09:23:14;;;;;;;;;2.25;2.00;;;;;;;;5079064;27;45435;-66
2022/10/21 09:25:55;;;;;;;;;2.00;2.00;;;;;;;;5084381;27;45752;-65
2022/10/21 09:28:25;;;;;;;;;2.25;1.50;;;;;;;;5086985;27;45461;-66
2022/10/21 09:30:51;;;;;;;;;3.25;2.00;;;;;;;;5086495;27;45746;-65
2022/10/21 09:33:27;;;;;;;;;5.25;4.75;;;;;;;;5083553;27;45646;-65
2022/10/21 09:36:06;;;;;;;;;3.00;3.00;;;;;;;;5080250;27;46021;-65
2022/10/21 09:38:49;;;;;;;;;3.50;3.50;;;;;;;;5092518;27;45939;-66
2022/10/21 09:41:21;;;;;;;;;6.75;4.00;;;;;;;;5090492;27;45862;-66
2022/10/21 09:43:47;;;;;;;;;4.25;3.50;;;;;;;;5095837;27;45738;-65
2022/10/21 09:46:14;;;;;;;;;5.75;4.00;;;;;;;;5089631;27;45825;-65
2022/10/21 09:48:52;;;;;;;;;4.50;4.50;;;;;;;;5083880;27;45576;-68
2022/10/21 09:51:28;;;;;;;;;4.50;3.50;;;;;;;;5068633;27;45776;-66
2022/10/21 09:54:12;;;;;;;;;5.00;3.75;;;;;;;;5084930;27;45749;-65
2022/10/21 09:56:39;;;;;;;;;6.25;4.00;;;;;;;;5074271;27;45570;-65
2022/10/21 09:59:17;;;;;;;;;4.00;3.00;;;;;;;;5085650;27;46054;-66
2022/10/21 10:01:43;;;;;;;;;2.25;2.25;;;;;;;;5092809;27;45704;-66
2022/10/21 10:04:14;;;;;;;;;2.75;2.25;;;;;;;;5074818;27;46277;-66
2022/10/21 10:06:41;;;;;;;;;3.00;3.00;;;;;;;;5076330;27;46584;-68
2022/10/21 10:09:15;;;;;;;;;2.20;2.20;;;;;;;;5069712;27;45546;-71
2022/10/21 10:11:50;;;;;;;;;2.75;2.75;;;;;;;;5082811;27;45534;-69
2022/10/21 10:14:20;;;;;;;;;4.25;4.00;;;;;;;;5075300;27;46001;-66
2022/10/21 10:16:45;;;;;;;;;4.25;3.00;;;;;;;;5107995;27;47170;-68
2022/10/21 10:19:14;;;;;;;;;2.50;2.50;;;;;;;;5069733;27;45589;-68
2022/10/21 10:21:39;;;;;;;;;4.75;2.50;;;;;;;;5076065;27;45852;-67
2022/10/21 10:24:05;;;;;;;;;3.00;2.50;;;;;;;;5091643;27;45464;-69
2022/10/21 10:26:30;;;;;;;;;5.25;3.00;;;;;;;;5075773;27;48004;-67
2022/10/21 10:29:05;;;;;;;;;6.50;3.00;;;;;;;;5086453;27;45445;-67
2022/10/21 10:31:32;;;;;;;;;3.00;2.00;;;;;;;;5090514;27;45779;-66
2022/10/21 10:33:59;;;;;;;;;3.00;3.00;;;;;;;;5095402;27;45525;-66
2022/10/21 10:36:30;;;;;;;;;3.00;1.00;;;;;;;;5090239;27;45623;-64
2022/10/21 10:38:57;;;;;;;;;5.00;3.00;;;;;;;;5096883;27;45739;-65
2022/10/21 10:41:28;;;;;;;;;3.75;2.00;;;;;;;;5092517;27;45622;-66
2022/10/21 10:43:54;;;;;;;;;2.00;2.00;;;;;;;;5075230;27;45617;-66
2022/10/21 10:46:31;;;;;;;;;3.00;1.50;;;;;;;;5084151;27;45957;-65
2022/10/21 10:49:11;;;;;;;;;5.75;3.25;;;;;;;;5082689;27;45859;-67
2022/10/21 10:51:37;;;;;;;;;6.00;3.00;;;;;;;;5083702;27;45720;-65
2022/10/21 10:54:02;;;;;;;;;2.50;2.50;;;;;;;;5088254;27;45559;-66
2022/10/21 10:56:31;;;;;;;;;6.25;4.00;;;;;;;;5090530;27;45408;-65
2022/10/21 10:59:11;;;;;;;;;3.00;3.00;;;;;;;;5076785;27;45531;-74
2022/10/21 11:01:42;;;;;;;;;2.75;2.25;;;;;;;;5083354;27;45428;-74
2022/10/21 11:04:15;;;;;;;;;3.25;2.00;;;;;;;;5073272;27;45401;-74
2022/10/21 11:06:44;;;;;;;;;5.25;3.00;;;;;;;;5078844;27;46641;-76
2022/10/21 11:09:10;;;;;;;;;4.00;2.50;;;;;;;;5092565;27;45424;-76
2022/10/21 11:11:38;;;;;;;;;2.00;2.00;;;;;;;;5093481;27;45766;-74
2022/10/21 11:14:08;;;;;;;;;2.25;2.00;;;;;;;;5080408;27;45513;-73
2022/10/21 11:16:56;;;;;;;;;5.00;2.00;;;;;;;;5082598;27;45724;-73
2022/10/21 11:19:21;;;;;;;;;3.25;2.00;;;;;;;;5080676;27;45319;-74
2022/10/21 11:22:07;;;;;;;;;2.75;1.75;;;;;;;;5085583;27;46072;-73
2022/10/21 11:24:38;;;;;;;;;3.75;1.50;;;;;;;;5053448;27;45985;-74
2022/10/21 11:27:03;;;;;;;;;2.50;2.50;;;;;;;;5088888;27;46351;-75
2022/10/21 11:29:47;;;;;;;;;2.50;1.75;;;;;;;;5084004;27;45326;-74
2022/10/21 11:32:15;;;;;;;;;2.00;2.00;;;;;;;;5079972;27;45753;-74
2022/10/21 11:34:43;;;;;;;;;4.50;1.00;;;;;;;;5085262;27;45352;-75
2022/10/21 11:37:11;;;;;;;;;1.50;1.50;;;;;;;;5082115;27;45962;-73
2022/10/21 11:39:50;;;;;;;;;1.50;1.50;;;;;;;;5085913;27;45479;-75
2022/10/21 11:42:24;;;;;;;;;2.50;1.75;;;;;;;;5087394;27;45319;-74
2022/10/21 11:44:49;;;;;;;;;4.50;1.00;;;;;;;;5097741;27;46143;-74
2022/10/21 11:47:19;;;;;;;;;1.00;1.00;;;;;;;;5088118;27;45671;-76
2022/10/21 11:49:52;;;;;;;;;1.75;0.50;;;;;;;;5102673;27;45414;-74
2022/10/21 11:52:33;;;;;;;;;1.50;1.00;;;;;;;;5089432;27;45376;-75
2022/10/21 11:55:14;;;;;;;;;3.25;0.75;;;;;;;;5082439;27;45796;-74
2022/10/21 11:57:40;;;;;;;;;2.00;1.00;;;;;;;;5095435;27;47010;-74
2022/10/21 12:00:11;;;;;;;;;1.00;1.00;;;;;;;;5106112;27;45472;-74
2022/10/21 12:02:41;;;;;;;;;2.75;1.50;;;;;;;;5074242;27;45564;-73
2022/10/21 12:05:19;;;;;;;;;0.00;0.00;;;;;;;;5091082;27;45566;-73
2022/10/21 12:07:59;;;;;;;;;1.00;1.00;;;;;;;;5078847;27;47281;-73
2022/10/21 12:10:36;;;;;;;;;3.25;1.00;;;;;;;;5094474;27;45829;-73
2022/10/21 12:13:05;;;;;;;;;2.00;1.50;;;;;;;;5094389;27;45731;-73
2022/10/21 12:15:34;;;;;;;;;4.00;0.00;;;;;;;;5105417;27;46484;-74
2022/10/21 12:18:02;;;;;;;;;2.00;1.00;;;;;;;;5095847;27;45732;-73
2022/10/21 12:20:28;;;;;;;;;2.00;1.00;;;;;;;;5092632;27;45683;-73
2022/10/21 12:22:57;;;;;;;;;2.25;1.00;;;;;;;;5086959;27;45330;-73
2022/10/21 12:25:27;;;;;;;;;5.00;0.00;;;;;;;;5096532;27;45592;-75
2022/10/21 12:28:16;;;;;;;;;3.00;1.00;;;;;;;;5103893;27;45894;-73
2022/10/21 12:30:58;;;;;;;;;1.75;1.00;;;;;;;;5044866;27;45486;-74
2022/10/21 12:33:23;;;;;;;;;3.00;0.50;;;;;;;;5091358;27;45433;-74
2022/10/21 12:35:54;;;;;;;;;1.75;0.25;;;;;;;;5093513;27;45629;-74
2022/10/21 12:38:20;;;;;;;;;1.00;1.00;;;;;;;;5092753;27;45513;-73
2022/10/21 12:40:45;;;;;;;;;3.50;1.75;;;;;;;;5065193;27;45377;-72
2022/10/21 12:43:22;;;;;;;;;3.50;0.75;;;;;;;;5096412;27;45369;-74
2022/10/21 12:46:00;;;;;;;;;1.50;0.00;;;;;;;;5087601;27;45379;-73
2022/10/21 12:48:31;;;;;;;;;0.50;0.50;;;;;;;;5093639;27;47002;-72
2022/10/21 12:50:58;;;;;;;;;1.50;1.25;;;;;;;;5093965;27;45407;-73
2022/10/21 12:53:30;;;;;;;;;1.00;1.00;;;;;;;;5104135;27;45684;-73
2022/10/21 12:55:57;;;;;;;;;1.00;1.00;;;;;;;;5089675;27;45420;-72
2022/10/21 12:58:23;;;;;;;;;1.50;1.50;;;;;;;;5107609;27;46190;-73
2022/10/21 13:00:50;;;;;;;;;3.25;1.00;;;;;;;;5092277;27;45385;-74
2022/10/21 13:03:20;;;;;;;;;3.00;3.00;;;;;;;;5085270;27;45513;-73
2022/10/21 13:05:46;;;;;;;;;0.50;0.00;;;;;;;;5105160;27;45772;-74
2022/10/21 13:08:24;;;;;;;;;3.25;1.00;;;;;;;;5101890;27;45575;-77
2022/10/21 13:11:19;;;;;;;;;1.75;1.75;;;;;;;;5081494;27;46356;-72
2022/10/21 13:13:45;;;;;;;;;3.00;1.75;;;;;;;;5078645;27;45889;-75
2022/10/21 13:16:19;;;;;;;;;1.00;1.00;;;;;;;;5089498;27;45313;-72
2022/10/21 13:18:59;;;;;;;;;3.00;1.75;;;;;;;;5088981;27;45660;-74
2022/10/21 13:21:25;;;;;;;;;4.00;0.00;;;;;;;;5092811;27;45478;-74
2022/10/21 13:23:52;;;;;;;;;1.00;1.00;;;;;;;;5094159;27;45777;-74
2022/10/21 13:26:19;;;;;;;;;1.75;0.25;;;;;;;;5099954;27;45512;-73
2022/10/21 13:28:55;;;;;;;;;3.00;1.00;;;;;;;;5081360;27;45677;-75
2022/10/21 13:31:20;;;;;;;;;3.25;1.00;;;;;;;;5088271;27;45957;-75
2022/10/21 13:33:51;;;;;;;;;2.50;1.00;;;;;;;;5097307;27;45653;-73
2022/10/21 13:36:23;;;;;;;;;2.00;2.00;;;;;;;;5075465;27;45472;-74
2022/10/21 13:38:51;;;;;;;;;1.50;1.00;;;;;;;;5092265;27;45483;-73
2022/10/21 13:41:22;;;;;;;;;1.00;1.00;;;;;;;;5074224;27;45585;-74
2022/10/21 13:43:53;;;;;;;;;2.50;1.25;;;;;;;;5087646;27;45854;-74
2022/10/21 13:46:22;;;;;;;;;0.00;0.00;;;;;;;;5085889;27;45412;-73
2022/10/21 13:48:47;;;;;;;;;3.75;1.00;;;;;;;;5071085;27;45821;-74
2022/10/21 13:51:20;;;;;;;;;1.25;1.25;;;;;;;;5070195;27;45976;-74
2022/10/21 13:53:46;;;;;;;;;1.00;1.00;;;;;;;;5079349;27;45447;-73
2022/10/21 13:56:19;;;;;;;;;1.00;1.00;;;;;;;;5086162;27;45456;-73
2022/10/21 13:58:44;;;;;;;;;4.25;0.50;;;;;;;;5082194;27;46962;-75
2022/10/21 14:01:12;;;;;;;;;2.00;1.00;;;;;;;;5087708;27;45702;-75
2022/10/21 14:03:37;;;;;;;;;2.00;1.00;;;;;;;;5089975;27;45842;-73
2022/10/21 14:06:04;;;;;;;;;0.50;0.25;;;;;;;;5094361;27;45603;-73
2022/10/21 14:08:36;;;;;;;;;3.50;2.50;;;;;;;;5088098;27;46611;-73
2022/10/21 14:11:06;;;;;;;;;0.50;0.50;;;;;;;;5071732;27;45399;-75
2022/10/21 14:13:34;;;;;;;;;1.00;0.00;;;;;;;;5088405;27;45899;-74
2022/10/21 14:15:59;;;;;;;;;2.00;0.50;;;;;;;;5084824;27;45479;-74
2022/10/21 14:18:32;;;;;;;;;2.00;2.00;;;;;;;;5079190;27;45949;-72
2022/10/21 14:20:58;;;;;;;;;2.50;1.00;;;;;;;;5091340;27;45783;-70
2022/10/21 14:23:24;;;;;;;;;1.75;1.75;;;;;;;;5086471;27;45786;-74
2022/10/21 14:25:54;;;;;;;;;1.75;1.50;;;;;;;;5090747;27;45471;-72
2022/10/21 14:28:20;;;;;;;;;1.50;0.00;;;;;;;;5077960;27;47019;-73
2022/10/21 14:30:45;;;;;;;;;2.00;1.00;;;;;;;;5084053;27;45927;-75
2022/10/21 14:33:15;;;;;;;;;2.50;0.50;;;;;;;;5076359;27;45780;-74
2022/10/21 14:35:41;;;;;;;;;1.00;0.25;;;;;;;;5071450;27;45478;-76
2022/10/21 14:38:37;;;;;;;;;1.50;1.25;;;;;;;;5081796;27;46136;-73
2022/10/21 14:41:05;;;;;;;;;3.25;1.75;;;;;;;;5079626;27;45804;-74
2022/10/21 14:43:32;;;;;;;;;1.25;1.25;;;;;;;;5076821;27;45990;-75
2022/10/21 14:45:58;;;;;;;;;1.00;1.00;;;;;;;;5074474;27;45371;-77
2022/10/21 14:48:31;;;;;;;;;2.00;2.00;;;;;;;;5081434;27;47136;-75
2022/10/21 14:50:59;;;;;;;;;5.75;1.75;;;;;;;;5083753;27;45843;-73
2022/10/21 14:53:26;;;;;;;;;0.25;0.25;;;;;;;;5101148;27;45395;-74